ダラス/フォートワース の空港の天気 - METARとTAF

ダラス・フォートワース国際空港 ( KDFW / DFW ) - アメリカ テキサス州ダラス & フォートワース
飛行場実況気象(Metar)
観測時間01/19 05:09 CST (01/19 11:09 UTC)
風向・風速北西 12m/s 瞬間風速16m/s
視程4850m
天気現象弱い雨 弱い雪 もや
全天の8割程度の雲 雲底高度 300m
全天を覆う雲 雲底高度 490m
気温1.1℃
湿度92%
気圧1013hPa
METARKDFW 191109Z 31023G31KT 3SM -RASN BR BKN010 OVC016 01/00 A2990 RMK AO2 PK WND 33037/1056 RAB02 P0000 T00110000
過去の天気等 Google飛行場航空写真 Wunderground天気予報

過去48時間のMETAR

飛行場予報(TAF)
発表時間: 1/19 03:05 CST (1/19 09:05 UTC)
予報対象時間: 19日3時 CST ~ 20日6時 CST
風向・風速北西 14m/s 瞬間風速 19m/s
視程10km以上
全天を覆う雲 雲底高度 610m
19日5時 CST ~ 19日6時 CST に一時的に
視程8050m
天気現象弱い雨雪
19日10時 CST から
風向・風速北北西 14m/s 瞬間風速 20m/s
視程10km以上
全天の4割程度の雲 雲底高度 910m
19日17時 CST から
風向・風速北北西 9m/s
視程10km以上
少しの雲 雲底高度 7620m
KDFW 190905Z 1909/2012 32027G37KT P6SM OVC020
TEMPO 1911/1912 5SM -RASN
FM191600 33028G38KT P6SM SCT030
FM192300 34018KT P6SM FEW250